Terminal Aerodrome Forecast
Issued by NWS Flagstaff, AZ

Home | Current Version | Previous Version | Text Only | Print | Product List | Glossary On
Versions: 1 2 3 4 5 6 7 8 9 10 11 12 13 14 15 16 17 18 19 20 21 22 23 24 25 26 27 28 29
000
FTUS45 KFGZ 281100
TAFFLG
TAF
KFLG 281124Z 2812/2912 VRB06KT P6SM SCT070 BKN130
      TEMPO 2821/2901 VRB15G30KT 5SM TSRA BKN060CB OVC090
     FM290100 VRB05KT P6SM BKN060 BKN090
      TEMPO 2901/2904 VRB15G25KT 5SM TSRA BKN060CB OVC090=

USA.gov is the U.S. government's official web portal to all federal, state and local government web resources and services.